sensor_id;sensor_type;location;lat;lon;timestamp;pressure;altitude;pressure_sealevel;temperature;humidity
31331;BME280;34067;39.548;-76.088;2022-07-06T00:00:54;101108.65;;;26.62;85.65
31331;BME280;34067;39.548;-76.088;2022-07-06T00:03:22;101107.06;;;27.14;83.51
31331;BME280;34067;39.548;-76.088;2022-07-06T00:05:50;101102.35;;;26.59;82.55
31331;BME280;34067;39.548;-76.088;2022-07-06T00:08:18;101096.83;;;26.96;81.63
31331;BME280;34067;39.548;-76.088;2022-07-06T00:10:45;101096.68;;;27.51;80.98
31331;BME280;34067;39.548;-76.088;2022-07-06T00:13:13;101094.13;;;26.67;80.39
31331;BME280;34067;39.548;-76.088;2022-07-06T00:15:41;101088.04;;;27.15;80.43
31331;BME280;34067;39.548;-76.088;2022-07-06T00:18:10;101085.80;;;27.58;80.57
31331;BME280;34067;39.548;-76.088;2022-07-06T00:20:37;101082.83;;;27.12;80.59
31331;BME280;34067;39.548;-76.088;2022-07-06T00:23:05;101085.09;;;27.07;80.56
31331;BME280;34067;39.548;-76.088;2022-07-06T00:25:33;101089.59;;;26.96;81.18
31331;BME280;34067;39.548;-76.088;2022-07-06T00:28:01;101091.63;;;26.78;81.63
31331;BME280;34067;39.548;-76.088;2022-07-06T00:30:29;101084.58;;;27.00;81.23
31331;BME280;34067;39.548;-76.088;2022-07-06T00:32:57;101085.28;;;26.86;81.51
31331;BME280;34067;39.548;-76.088;2022-07-06T00:35:26;101079.80;;;27.37;81.32
31331;BME280;34067;39.548;-76.088;2022-07-06T00:37:54;101078.64;;;27.09;82.38
31331;BME280;34067;39.548;-76.088;2022-07-06T00:40:22;101077.63;;;27.04;82.80
31331;BME280;34067;39.548;-76.088;2022-07-06T00:42:51;101079.09;;;26.97;83.73
31331;BME280;34067;39.548;-76.088;2022-07-06T00:45:19;101077.16;;;26.64;82.65
31331;BME280;34067;39.548;-76.088;2022-07-06T00:47:46;101080.68;;;27.02;83.11
31331;BME280;34067;39.548;-76.088;2022-07-06T00:50:15;101081.27;;;26.76;84.14
31331;BME280;34067;39.548;-76.088;2022-07-06T00:52:45;101077.17;;;26.94;83.82
31331;BME280;34067;39.548;-76.088;2022-07-06T00:55:15;101074.47;;;26.97;83.71
31331;BME280;34067;39.548;-76.088;2022-07-06T00:57:43;101073.48;;;26.40;85.78
31331;BME280;34067;39.548;-76.088;2022-07-06T01:00:13;101080.17;;;26.14;86.40
31331;BME280;34067;39.548;-76.088;2022-07-06T01:02:43;101077.26;;;26.38;87.12
31331;BME280;34067;39.548;-76.088;2022-07-06T01:05:12;101078.26;;;26.57;87.95
31331;BME280;34067;39.548;-76.088;2022-07-06T01:07:43;101092.47;;;26.64;87.58
31331;BME280;34067;39.548;-76.088;2022-07-06T01:10:14;101097.13;;;26.68;88.29
31331;BME280;34067;39.548;-76.088;2022-07-06T01:12:43;101097.32;;;26.29;88.29
31331;BME280;34067;39.548;-76.088;2022-07-06T01:15:14;101107.31;;;25.94;87.88
31331;BME280;34067;39.548;-76.088;2022-07-06T01:17:43;101111.47;;;26.44;88.43
31331;BME280;34067;39.548;-76.088;2022-07-06T01:20:12;101108.13;;;26.75;88.36
31331;BME280;34067;39.548;-76.088;2022-07-06T01:22:42;101102.83;;;26.13;88.06
31331;BME280;34067;39.548;-76.088;2022-07-06T01:25:10;101109.44;;;26.99;87.32
31331;BME280;34067;39.548;-76.088;2022-07-06T01:27:39;101109.03;;;26.76;87.89
31331;BME280;34067;39.548;-76.088;2022-07-06T01:30:09;101108.12;;;26.33;87.50
31331;BME280;34067;39.548;-76.088;2022-07-06T01:32:38;101106.91;;;26.51;87.58
31331;BME280;34067;39.548;-76.088;2022-07-06T01:35:07;101108.64;;;26.67;86.64
31331;BME280;34067;39.548;-76.088;2022-07-06T01:37:36;101107.31;;;26.73;86.83
31331;BME280;34067;39.548;-76.088;2022-07-06T01:40:06;101104.98;;;26.28;88.42
31331;BME280;34067;39.548;-76.088;2022-07-06T01:42:35;101104.58;;;26.48;87.90
31331;BME280;34067;39.548;-76.088;2022-07-06T01:45:04;101103.32;;;26.44;88.39
31331;BME280;34067;39.548;-76.088;2022-07-06T01:47:33;101094.49;;;26.65;86.62
31331;BME280;34067;39.548;-76.088;2022-07-06T01:50:03;101097.34;;;26.77;86.58
31331;BME280;34067;39.548;-76.088;2022-07-06T01:52:32;101094.91;;;26.48;87.39
31331;BME280;34067;39.548;-76.088;2022-07-06T01:55:00;101096.85;;;26.62;87.91
31331;BME280;34067;39.548;-76.088;2022-07-06T01:57:28;101095.62;;;26.76;87.33
31331;BME280;34067;39.548;-76.088;2022-07-06T01:59:56;101089.73;;;26.69;87.25
31331;BME280;34067;39.548;-76.088;2022-07-06T02:02:24;101087.31;;;26.59;87.78
31331;BME280;34067;39.548;-76.088;2022-07-06T02:04:52;101085.99;;;26.54;87.91
31331;BME280;34067;39.548;-76.088;2022-07-06T02:07:20;101086.08;;;26.60;88.15
31331;BME280;34067;39.548;-76.088;2022-07-06T02:09:48;101080.34;;;26.50;88.34
31331;BME280;34067;39.548;-76.088;2022-07-06T02:12:17;101077.44;;;27.07;87.59
31331;BME280;34067;39.548;-76.088;2022-07-06T02:14:45;101082.65;;;26.70;87.45
31331;BME280;34067;39.548;-76.088;2022-07-06T02:17:12;101084.95;;;26.64;87.30
31331;BME280;34067;39.548;-76.088;2022-07-06T02:19:40;101078.53;;;26.64;87.61
31331;BME280;34067;39.548;-76.088;2022-07-06T02:22:09;101072.59;;;26.44;88.29
31331;BME280;34067;39.548;-76.088;2022-07-06T02:24:36;101069.85;;;26.16;88.19
31331;BME280;34067;39.548;-76.088;2022-07-06T02:27:04;101065.43;;;26.82;87.06
31331;BME280;34067;39.548;-76.088;2022-07-06T02:29:32;101062.22;;;27.04;86.34
31331;BME280;34067;39.548;-76.088;2022-07-06T02:32:00;101064.94;;;27.13;86.64
31331;BME280;34067;39.548;-76.088;2022-07-06T02:34:28;101062.83;;;27.10;86.80
31331;BME280;34067;39.548;-76.088;2022-07-06T02:36:56;101053.69;;;27.23;84.61
31331;BME280;34067;39.548;-76.088;2022-07-06T02:39:25;101046.93;;;27.22;84.30
31331;BME280;34067;39.548;-76.088;2022-07-06T02:41:52;101037.16;;;27.25;84.62
31331;BME280;34067;39.548;-76.088;2022-07-06T02:44:20;101035.68;;;26.87;85.84
31331;BME280;34067;39.548;-76.088;2022-07-06T02:46:47;101038.73;;;26.76;86.73
31331;BME280;34067;39.548;-76.088;2022-07-06T02:49:15;101036.91;;;26.78;85.80
31331;BME280;34067;39.548;-76.088;2022-07-06T02:51:43;101036.47;;;27.03;87.19
31331;BME280;34067;39.548;-76.088;2022-07-06T02:54:11;101031.58;;;27.02;87.18
31331;BME280;34067;39.548;-76.088;2022-07-06T02:56:38;101030.14;;;26.89;82.23
31331;BME280;34067;39.548;-76.088;2022-07-06T02:59:06;101030.82;;;27.33;85.84
31331;BME280;34067;39.548;-76.088;2022-07-06T03:01:34;101028.83;;;27.01;86.78
31331;BME280;34067;39.548;-76.088;2022-07-06T03:04:02;101027.40;;;27.23;86.93
31331;BME280;34067;39.548;-76.088;2022-07-06T03:06:30;101025.82;;;26.62;87.03
31331;BME280;34067;39.548;-76.088;2022-07-06T03:08:58;101026.88;;;26.88;87.83
31331;BME280;34067;39.548;-76.088;2022-07-06T03:11:26;101031.28;;;26.87;86.73
31331;BME280;34067;39.548;-76.088;2022-07-06T03:13:54;101031.33;;;26.81;88.91
31331;BME280;34067;39.548;-76.088;2022-07-06T03:16:21;101028.40;;;26.95;88.51
31331;BME280;34067;39.548;-76.088;2022-07-06T03:18:49;101025.65;;;26.99;87.80
31331;BME280;34067;39.548;-76.088;2022-07-06T03:21:17;101022.35;;;26.96;90.02
31331;BME280;34067;39.548;-76.088;2022-07-06T03:23:45;101017.56;;;26.54;89.97
31331;BME280;34067;39.548;-76.088;2022-07-06T03:26:13;101020.03;;;26.61;89.47
31331;BME280;34067;39.548;-76.088;2022-07-06T03:28:40;101014.81;;;26.40;89.78
31331;BME280;34067;39.548;-76.088;2022-07-06T03:31:08;101018.40;;;26.48;89.68
31331;BME280;34067;39.548;-76.088;2022-07-06T03:33:36;101023.44;;;26.50;89.27
31331;BME280;34067;39.548;-76.088;2022-07-06T03:36:03;101020.24;;;26.53;89.22
31331;BME280;34067;39.548;-76.088;2022-07-06T03:38:31;101018.09;;;26.60;90.26
31331;BME280;34067;39.548;-76.088;2022-07-06T03:40:59;101020.07;;;26.97;91.01
31331;BME280;34067;39.548;-76.088;2022-07-06T03:43:28;101020.15;;;26.26;90.31
31331;BME280;34067;39.548;-76.088;2022-07-06T03:45:56;101015.65;;;27.22;89.97
31331;BME280;34067;39.548;-76.088;2022-07-06T03:48:23;101013.22;;;26.44;89.50
31331;BME280;34067;39.548;-76.088;2022-07-06T03:50:51;101012.07;;;26.92;88.54
31331;BME280;34067;39.548;-76.088;2022-07-06T03:53:19;101012.29;;;26.61;87.27
31331;BME280;34067;39.548;-76.088;2022-07-06T03:55:47;101008.18;;;26.35;86.70
31331;BME280;34067;39.548;-76.088;2022-07-06T03:58:15;101007.34;;;26.83;87.50
31331;BME280;34067;39.548;-76.088;2022-07-06T04:00:43;101009.53;;;26.62;87.78
31331;BME280;34067;39.548;-76.088;2022-07-06T04:03:11;101015.48;;;27.05;87.94
31331;BME280;34067;39.548;-76.088;2022-07-06T04:05:39;101017.05;;;26.39;88.48
31331;BME280;34067;39.548;-76.088;2022-07-06T04:08:06;101010.30;;;26.71;89.15
31331;BME280;34067;39.548;-76.088;2022-07-06T04:10:34;101009.63;;;27.29;87.97
31331;BME280;34067;39.548;-76.088;2022-07-06T04:13:02;101014.03;;;27.07;88.62
31331;BME280;34067;39.548;-76.088;2022-07-06T04:15:30;101016.86;;;27.23;88.20
31331;BME280;34067;39.548;-76.088;2022-07-06T04:17:58;101015.96;;;26.39;87.49
31331;BME280;34067;39.548;-76.088;2022-07-06T04:20:26;101008.83;;;27.07;86.79
31331;BME280;34067;39.548;-76.088;2022-07-06T04:22:53;101008.88;;;27.50;86.05
31331;BME280;34067;39.548;-76.088;2022-07-06T04:25:21;101017.12;;;27.44;86.77
31331;BME280;34067;39.548;-76.088;2022-07-06T04:27:48;101024.20;;;27.55;86.91
31331;BME280;34067;39.548;-76.088;2022-07-06T04:30:16;101026.85;;;26.88;86.99
31331;BME280;34067;39.548;-76.088;2022-07-06T04:32:44;101022.95;;;26.64;87.18
31331;BME280;34067;39.548;-76.088;2022-07-06T04:35:12;101024.25;;;26.67;87.32
31331;BME280;34067;39.548;-76.088;2022-07-06T04:37:39;101034.88;;;27.30;87.33
31331;BME280;34067;39.548;-76.088;2022-07-06T04:40:08;101033.99;;;26.58;87.91
31331;BME280;34067;39.548;-76.088;2022-07-06T04:42:38;101026.07;;;26.45;87.10
31331;BME280;34067;39.548;-76.088;2022-07-06T04:45:07;101025.75;;;27.04;87.29
31331;BME280;34067;39.548;-76.088;2022-07-06T04:47:36;101021.97;;;26.30;88.09
31331;BME280;34067;39.548;-76.088;2022-07-06T04:50:05;101017.53;;;26.62;88.78
31331;BME280;34067;39.548;-76.088;2022-07-06T04:52:33;101009.31;;;26.68;86.67
31331;BME280;34067;39.548;-76.088;2022-07-06T04:55:02;100997.15;;;27.16;86.56
31331;BME280;34067;39.548;-76.088;2022-07-06T04:57:30;100988.78;;;26.79;86.34
31331;BME280;34067;39.548;-76.088;2022-07-06T04:59:58;100990.25;;;26.96;85.33
31331;BME280;34067;39.548;-76.088;2022-07-06T05:03:09;101000.85;;;26.83;85.87
31331;BME280;34067;39.548;-76.088;2022-07-06T05:05:37;101005.02;;;26.79;86.11
31331;BME280;34067;39.548;-76.088;2022-07-06T05:08:05;101008.06;;;27.04;88.02
31331;BME280;34067;39.548;-76.088;2022-07-06T05:10:33;101009.56;;;26.67;87.23
31331;BME280;34067;39.548;-76.088;2022-07-06T05:13:01;101016.58;;;27.12;85.89
31331;BME280;34067;39.548;-76.088;2022-07-06T05:15:28;101013.09;;;27.15;85.75
31331;BME280;34067;39.548;-76.088;2022-07-06T05:17:56;101004.34;;;27.22;85.59
31331;BME280;34067;39.548;-76.088;2022-07-06T05:20:23;100997.21;;;27.49;85.65
31331;BME280;34067;39.548;-76.088;2022-07-06T05:22:52;100995.79;;;26.85;86.46
31331;BME280;34067;39.548;-76.088;2022-07-06T05:25:20;100997.68;;;27.10;85.87
31331;BME280;34067;39.548;-76.088;2022-07-06T05:27:48;101002.11;;;27.16;85.68
31331;BME280;34067;39.548;-76.088;2022-07-06T05:30:16;101012.08;;;27.44;84.89
31331;BME280;34067;39.548;-76.088;2022-07-06T05:32:44;101022.67;;;27.38;85.25
31331;BME280;34067;39.548;-76.088;2022-07-06T05:35:11;101026.76;;;27.56;84.28
31331;BME280;34067;39.548;-76.088;2022-07-06T05:37:39;101029.64;;;26.95;84.91
31331;BME280;34067;39.548;-76.088;2022-07-06T05:40:08;101026.47;;;27.15;84.16
31331;BME280;34067;39.548;-76.088;2022-07-06T05:42:37;101026.89;;;27.29;83.18
31331;BME280;34067;39.548;-76.088;2022-07-06T05:45:06;101023.79;;;27.15;83.86
31331;BME280;34067;39.548;-76.088;2022-07-06T05:47:34;101012.77;;;27.15;83.70
31331;BME280;34067;39.548;-76.088;2022-07-06T05:50:02;101016.57;;;27.57;85.74
31331;BME280;34067;39.548;-76.088;2022-07-06T05:52:30;101015.37;;;27.42;85.25
31331;BME280;34067;39.548;-76.088;2022-07-06T05:54:58;101012.86;;;27.41;85.44
31331;BME280;34067;39.548;-76.088;2022-07-06T05:57:26;101007.17;;;27.03;85.41
31331;BME280;34067;39.548;-76.088;2022-07-06T05:59:54;101008.58;;;27.32;86.13
31331;BME280;34067;39.548;-76.088;2022-07-06T06:02:22;101006.11;;;27.28;86.27
31331;BME280;34067;39.548;-76.088;2022-07-06T06:04:49;101005.34;;;27.33;86.42
31331;BME280;34067;39.548;-76.088;2022-07-06T06:07:18;101000.42;;;27.33;86.93
31331;BME280;34067;39.548;-76.088;2022-07-06T06:09:45;100991.76;;;26.62;88.06
31331;BME280;34067;39.548;-76.088;2022-07-06T06:12:13;100992.75;;;26.95;87.44
31331;BME280;34067;39.548;-76.088;2022-07-06T06:14:41;100989.86;;;27.45;89.61
31331;BME280;34067;39.548;-76.088;2022-07-06T06:17:09;100991.84;;;26.58;91.44
31331;BME280;34067;39.548;-76.088;2022-07-06T06:19:36;100986.39;;;27.22;88.70
31331;BME280;34067;39.548;-76.088;2022-07-06T06:22:04;100986.94;;;27.04;87.59
31331;BME280;34067;39.548;-76.088;2022-07-06T06:24:33;100992.47;;;27.74;86.88
31331;BME280;34067;39.548;-76.088;2022-07-06T06:27:00;100990.85;;;27.33;86.62
31331;BME280;34067;39.548;-76.088;2022-07-06T06:29:29;100990.44;;;27.50;87.66
31331;BME280;34067;39.548;-76.088;2022-07-06T06:31:57;100987.19;;;26.90;88.26
31331;BME280;34067;39.548;-76.088;2022-07-06T06:34:25;100988.14;;;27.18;89.14
31331;BME280;34067;39.548;-76.088;2022-07-06T06:36:53;100988.26;;;26.87;88.76
31331;BME280;34067;39.548;-76.088;2022-07-06T06:39:21;100993.64;;;27.15;89.66
31331;BME280;34067;39.548;-76.088;2022-07-06T06:41:49;101003.32;;;26.77;90.55
31331;BME280;34067;39.548;-76.088;2022-07-06T06:44:16;101008.11;;;26.93;90.49
31331;BME280;34067;39.548;-76.088;2022-07-06T06:46:44;101005.72;;;26.74;93.23
31331;BME280;34067;39.548;-76.088;2022-07-06T06:49:12;100999.07;;;26.61;92.75
31331;BME280;34067;39.548;-76.088;2022-07-06T06:51:39;100996.43;;;26.64;93.26
31331;BME280;34067;39.548;-76.088;2022-07-06T06:54:08;101001.86;;;25.61;97.99
31331;BME280;34067;39.548;-76.088;2022-07-06T06:56:36;100999.85;;;26.39;93.78
31331;BME280;34067;39.548;-76.088;2022-07-06T06:59:04;100993.72;;;26.25;95.68
31331;BME280;34067;39.548;-76.088;2022-07-06T07:01:31;100988.22;;;25.80;97.98
31331;BME280;34067;39.548;-76.088;2022-07-06T07:03:59;100981.74;;;26.80;95.24
31331;BME280;34067;39.548;-76.088;2022-07-06T07:06:27;100983.22;;;26.78;93.37
31331;BME280;34067;39.548;-76.088;2022-07-06T07:08:54;100982.50;;;27.17;91.34
31331;BME280;34067;39.548;-76.088;2022-07-06T07:11:23;100977.13;;;26.93;90.24
31331;BME280;34067;39.548;-76.088;2022-07-06T07:13:50;100976.02;;;26.63;89.23
31331;BME280;34067;39.548;-76.088;2022-07-06T07:16:18;100976.83;;;26.87;89.24
31331;BME280;34067;39.548;-76.088;2022-07-06T07:18:46;100989.94;;;26.35;89.55
31331;BME280;34067;39.548;-76.088;2022-07-06T07:21:14;100991.84;;;26.60;90.32
31331;BME280;34067;39.548;-76.088;2022-07-06T07:23:42;100988.78;;;27.23;89.64
31331;BME280;34067;39.548;-76.088;2022-07-06T07:26:10;100979.97;;;26.88;88.33
31331;BME280;34067;39.548;-76.088;2022-07-06T07:28:38;100979.11;;;26.62;87.24
31331;BME280;34067;39.548;-76.088;2022-07-06T07:31:06;100980.59;;;26.97;86.29
31331;BME280;34067;39.548;-76.088;2022-07-06T07:33:34;100978.70;;;26.93;87.29
31331;BME280;34067;39.548;-76.088;2022-07-06T07:36:02;100977.19;;;26.79;87.54
31331;BME280;34067;39.548;-76.088;2022-07-06T07:38:30;100972.55;;;26.81;86.91
31331;BME280;34067;39.548;-76.088;2022-07-06T07:40:59;100972.85;;;26.72;87.86
31331;BME280;34067;39.548;-76.088;2022-07-06T07:43:27;100975.61;;;26.73;87.53
31331;BME280;34067;39.548;-76.088;2022-07-06T07:45:55;100983.46;;;27.15;88.18
31331;BME280;34067;39.548;-76.088;2022-07-06T07:48:23;100976.32;;;26.71;88.31
31331;BME280;34067;39.548;-76.088;2022-07-06T07:50:51;100968.72;;;27.18;87.60
31331;BME280;34067;39.548;-76.088;2022-07-06T07:53:19;100966.79;;;26.60;86.22
31331;BME280;34067;39.548;-76.088;2022-07-06T07:55:48;100970.99;;;26.40;87.93
31331;BME280;34067;39.548;-76.088;2022-07-06T07:58:15;100972.90;;;26.18;88.16
31331;BME280;34067;39.548;-76.088;2022-07-06T08:00:43;100971.23;;;26.10;88.53
31331;BME280;34067;39.548;-76.088;2022-07-06T08:03:10;100973.15;;;26.37;89.27
31331;BME280;34067;39.548;-76.088;2022-07-06T08:05:38;100980.54;;;26.57;89.10
31331;BME280;34067;39.548;-76.088;2022-07-06T08:08:06;100985.08;;;26.09;90.78
31331;BME280;34067;39.548;-76.088;2022-07-06T08:10:34;100987.90;;;25.60;91.54
31331;BME280;34067;39.548;-76.088;2022-07-06T08:13:02;100992.52;;;25.77;93.86
31331;BME280;34067;39.548;-76.088;2022-07-06T08:15:29;100985.89;;;25.36;95.72
31331;BME280;34067;39.548;-76.088;2022-07-06T08:17:57;100979.09;;;25.57;98.62
31331;BME280;34067;39.548;-76.088;2022-07-06T08:20:26;100965.75;;;25.37;95.42
31331;BME280;34067;39.548;-76.088;2022-07-06T08:22:54;100959.77;;;25.52;95.43
31331;BME280;34067;39.548;-76.088;2022-07-06T08:25:22;100953.00;;;25.51;95.15
31331;BME280;34067;39.548;-76.088;2022-07-06T08:27:50;100948.12;;;25.17;96.73
31331;BME280;34067;39.548;-76.088;2022-07-06T08:30:18;100953.87;;;25.04;96.84
31331;BME280;34067;39.548;-76.088;2022-07-06T08:32:46;100962.22;;;25.63;96.03
31331;BME280;34067;39.548;-76.088;2022-07-06T08:35:13;100966.69;;;25.94;93.53
31331;BME280;34067;39.548;-76.088;2022-07-06T08:37:42;100970.17;;;25.39;95.77
31331;BME280;34067;39.548;-76.088;2022-07-06T08:40:10;100970.49;;;24.19;98.75
31331;BME280;34067;39.548;-76.088;2022-07-06T08:42:38;100966.34;;;25.00;97.77
31331;BME280;34067;39.548;-76.088;2022-07-06T08:45:07;100974.47;;;24.05;100.00
31331;BME280;34067;39.548;-76.088;2022-07-06T08:47:36;100974.77;;;24.64;100.00
31331;BME280;34067;39.548;-76.088;2022-07-06T08:50:05;100970.86;;;23.79;100.00
31331;BME280;34067;39.548;-76.088;2022-07-06T08:52:34;100980.44;;;24.89;99.16
31331;BME280;34067;39.548;-76.088;2022-07-06T08:55:03;100981.82;;;24.29;99.41
31331;BME280;34067;39.548;-76.088;2022-07-06T08:57:31;100973.11;;;25.10;95.79
31331;BME280;34067;39.548;-76.088;2022-07-06T08:59:59;100969.12;;;24.69;94.19
31331;BME280;34067;39.548;-76.088;2022-07-06T09:02:27;100975.12;;;24.81;95.17
31331;BME280;34067;39.548;-76.088;2022-07-06T09:04:56;100976.62;;;24.97;94.62
31331;BME280;34067;39.548;-76.088;2022-07-06T09:07:26;100985.25;;;24.24;95.92
31331;BME280;34067;39.548;-76.088;2022-07-06T09:09:55;100987.04;;;23.87;94.86
31331;BME280;34067;39.548;-76.088;2022-07-06T09:12:25;100981.10;;;24.37;93.48
31331;BME280;34067;39.548;-76.088;2022-07-06T09:14:55;100982.33;;;24.64;90.83
31331;BME280;34067;39.548;-76.088;2022-07-06T09:17:26;100986.43;;;24.82;88.59
31331;BME280;34067;39.548;-76.088;2022-07-06T09:19:55;100989.40;;;25.13;86.62
31331;BME280;34067;39.548;-76.088;2022-07-06T09:22:28;100995.47;;;25.45;86.07
31331;BME280;34067;39.548;-76.088;2022-07-06T09:25:05;101000.88;;;24.83;87.10
31331;BME280;34067;39.548;-76.088;2022-07-06T09:27:38;101003.06;;;23.89;94.87
31331;BME280;34067;39.548;-76.088;2022-07-06T09:30:07;101004.29;;;24.11;95.73
31331;BME280;34067;39.548;-76.088;2022-07-06T09:32:39;101013.49;;;24.25;94.70
31331;BME280;34067;39.548;-76.088;2022-07-06T09:35:09;101018.19;;;24.04;94.96
31331;BME280;34067;39.548;-76.088;2022-07-06T09:37:47;101015.70;;;23.70;94.42
31331;BME280;34067;39.548;-76.088;2022-07-06T09:40:18;101016.04;;;24.10;93.17
31331;BME280;34067;39.548;-76.088;2022-07-06T09:42:46;101017.72;;;24.52;92.92
31331;BME280;34067;39.548;-76.088;2022-07-06T09:45:20;101014.32;;;24.23;94.72
31331;BME280;34067;39.548;-76.088;2022-07-06T09:47:49;101015.65;;;22.38;100.00
31331;BME280;34067;39.548;-76.088;2022-07-06T09:50:17;101021.17;;;23.13;99.31
31331;BME280;34067;39.548;-76.088;2022-07-06T09:52:54;101019.91;;;24.13;93.06
31331;BME280;34067;39.548;-76.088;2022-07-06T09:55:22;101025.49;;;23.24;97.39
31331;BME280;34067;39.548;-76.088;2022-07-06T09:57:54;101024.71;;;23.66;98.91
31331;BME280;34067;39.548;-76.088;2022-07-06T10:00:22;101024.09;;;23.89;97.13
31331;BME280;34067;39.548;-76.088;2022-07-06T10:02:51;101034.29;;;23.40;100.00
31331;BME280;34067;39.548;-76.088;2022-07-06T10:05:22;101022.70;;;23.48;100.00
31331;BME280;34067;39.548;-76.088;2022-07-06T10:07:50;101033.91;;;23.05;100.00
31331;BME280;34067;39.548;-76.088;2022-07-06T10:10:19;101040.96;;;22.18;100.00
31331;BME280;34067;39.548;-76.088;2022-07-06T10:12:47;101044.82;;;23.20;100.00
31331;BME280;34067;39.548;-76.088;2022-07-06T10:15:16;101058.09;;;22.18;100.00
31331;BME280;34067;39.548;-76.088;2022-07-06T10:17:46;101066.50;;;22.58;100.00
31331;BME280;34067;39.548;-76.088;2022-07-06T10:20:15;101062.67;;;23.83;98.11
31331;BME280;34067;39.548;-76.088;2022-07-06T10:22:44;101066.66;;;23.75;95.70
31331;BME280;34067;39.548;-76.088;2022-07-06T10:25:14;101074.02;;;23.33;97.48
31331;BME280;34067;39.548;-76.088;2022-07-06T10:27:43;101070.61;;;22.93;100.00
31331;BME280;34067;39.548;-76.088;2022-07-06T10:30:13;101072.73;;;23.17;97.69
31331;BME280;34067;39.548;-76.088;2022-07-06T10:32:42;101065.25;;;23.14;99.71
31331;BME280;34067;39.548;-76.088;2022-07-06T10:35:12;101066.86;;;23.11;99.55
31331;BME280;34067;39.548;-76.088;2022-07-06T10:37:40;101076.34;;;22.90;100.00
31331;BME280;34067;39.548;-76.088;2022-07-06T10:40:12;101069.83;;;23.18;100.00
31331;BME280;34067;39.548;-76.088;2022-07-06T10:42:42;101058.18;;;22.75;97.91
31331;BME280;34067;39.548;-76.088;2022-07-06T10:45:12;101053.11;;;22.59;100.00
31331;BME280;34067;39.548;-76.088;2022-07-06T10:47:41;101056.84;;;23.08;98.04
31331;BME280;34067;39.548;-76.088;2022-07-06T10:50:09;101052.85;;;23.40;95.79
31331;BME280;34067;39.548;-76.088;2022-07-06T10:53:09;101046.21;;;23.81;95.30
31331;BME280;34067;39.548;-76.088;2022-07-06T10:55:38;101048.69;;;23.17;98.38
31331;BME280;34067;39.548;-76.088;2022-07-06T10:58:07;101045.83;;;23.74;93.87
31331;BME280;34067;39.548;-76.088;2022-07-06T11:00:51;101036.67;;;23.52;95.17
31331;BME280;34067;39.548;-76.088;2022-07-06T11:03:38;101036.27;;;23.49;98.69
31331;BME280;34067;39.548;-76.088;2022-07-06T11:06:08;101035.77;;;23.15;100.00
31331;BME280;34067;39.548;-76.088;2022-07-06T11:08:46;101034.08;;;22.34;100.00
31331;BME280;34067;39.548;-76.088;2022-07-06T11:11:16;101050.23;;;23.27;100.00
31331;BME280;34067;39.548;-76.088;2022-07-06T11:13:50;101046.36;;;23.32;98.59
31331;BME280;34067;39.548;-76.088;2022-07-06T11:16:19;101037.82;;;24.26;95.35
31331;BME280;34067;39.548;-76.088;2022-07-06T11:18:49;101040.38;;;23.39;100.00
31331;BME280;34067;39.548;-76.088;2022-07-06T11:21:35;101044.11;;;22.06;100.00
31331;BME280;34067;39.548;-76.088;2022-07-06T11:24:05;101038.14;;;23.19;100.00
31331;BME280;34067;39.548;-76.088;2022-07-06T11:26:33;101041.53;;;23.31;100.00
31331;BME280;34067;39.548;-76.088;2022-07-06T11:29:04;101049.59;;;22.25;100.00
31331;BME280;34067;39.548;-76.088;2022-07-06T11:31:34;101042.81;;;23.21;100.00
31331;BME280;34067;39.548;-76.088;2022-07-06T11:34:03;101048.66;;;22.78;100.00
31331;BME280;34067;39.548;-76.088;2022-07-06T11:36:31;101052.49;;;23.73;99.84
31331;BME280;34067;39.548;-76.088;2022-07-06T11:38:59;101054.62;;;23.84;98.54
31331;BME280;34067;39.548;-76.088;2022-07-06T11:41:27;101060.63;;;23.36;99.98
31331;BME280;34067;39.548;-76.088;2022-07-06T11:43:55;101074.03;;;23.64;96.13
31331;BME280;34067;39.548;-76.088;2022-07-06T11:46:25;101065.67;;;23.02;99.15
31331;BME280;34067;39.548;-76.088;2022-07-06T11:48:55;101067.60;;;24.08;95.31
31331;BME280;34067;39.548;-76.088;2022-07-06T11:51:25;101065.38;;;23.61;88.55
31331;BME280;34067;39.548;-76.088;2022-07-06T11:53:55;101070.21;;;24.37;88.27
31331;BME280;34067;39.548;-76.088;2022-07-06T11:56:24;101076.97;;;24.68;87.09
31331;BME280;34067;39.548;-76.088;2022-07-06T11:58:53;101078.85;;;25.01;81.32
31331;BME280;34067;39.548;-76.088;2022-07-06T12:01:22;101079.39;;;26.11;77.87
31331;BME280;34067;39.548;-76.088;2022-07-06T12:03:51;101078.71;;;25.50;81.78
31331;BME280;34067;39.548;-76.088;2022-07-06T12:06:21;101073.82;;;25.33;75.78
31331;BME280;34067;39.548;-76.088;2022-07-06T12:08:53;101073.80;;;26.14;79.87
31331;BME280;34067;39.548;-76.088;2022-07-06T12:11:23;101074.85;;;26.36;74.64
31331;BME280;34067;39.548;-76.088;2022-07-06T12:13:52;101079.91;;;26.35;74.51
31331;BME280;34067;39.548;-76.088;2022-07-06T12:16:21;101072.58;;;26.23;73.50
31331;BME280;34067;39.548;-76.088;2022-07-06T12:18:49;101073.42;;;25.73;75.28
31331;BME280;34067;39.548;-76.088;2022-07-06T12:21:19;101074.23;;;26.59;73.97
31331;BME280;34067;39.548;-76.088;2022-07-06T12:23:48;101079.17;;;26.36;72.94
31331;BME280;34067;39.548;-76.088;2022-07-06T12:26:19;101083.25;;;27.27;70.26
31331;BME280;34067;39.548;-76.088;2022-07-06T12:28:54;101076.00;;;26.62;71.62
31331;BME280;34067;39.548;-76.088;2022-07-06T12:31:35;101074.49;;;26.13;78.89
31331;BME280;34067;39.548;-76.088;2022-07-06T12:34:05;101066.87;;;26.69;76.68
31331;BME280;34067;39.548;-76.088;2022-07-06T12:36:43;101062.93;;;26.80;70.06
31331;BME280;34067;39.548;-76.088;2022-07-06T12:39:12;101067.41;;;27.05;68.13